Time;durP1;ratioP1;P1;durP2;ratioP2;P2;SDS_P1;SDS_P2;PMS_P1;PMS_P2;Temp;Humidity;BMP_temperature;BMP_pressure;BME280_temperature;BME280_humidity;BME280_pressure;Samples;Min_cycle;Max_cycle;Signal;HPM_P1;HPM_P2
2021/08/05 00:01:54;;;;;;;8.33;5.90;;;;;;;17.36;85.27;96295.06;127453;1097;24849;-83
2021/08/05 00:04:25;;;;;;;8.08;6.08;;;;;;;17.39;85.51;96286.36;127484;1096;27179;-84
2021/08/05 00:06:57;;;;;;;7.33;5.20;;;;;;;17.42;85.40;96279.55;127412;1096;23520;-84
2021/08/05 00:09:28;;;;;;;9.58;6.05;;;;;;;17.43;85.37;96281.90;127435;1096;23777;-82
2021/08/05 00:12:02;;;;;;;8.35;6.20;;;;;;;17.45;85.39;96281.56;127413;1097;26970;-84
2021/08/05 00:14:33;;;;;;;9.53;6.35;;;;;;;17.47;84.91;96276.68;127513;1095;29679;-85
2021/08/05 00:17:05;;;;;;;10.98;6.13;;;;;;;17.49;85.27;96277.91;127468;1096;25190;-84
2021/08/05 00:19:37;;;;;;;7.93;6.10;;;;;;;17.48;85.24;96278.25;127464;1096;61382;-83
2021/08/05 00:22:08;;;;;;;8.75;5.65;;;;;;;17.45;85.17;96263.62;127416;1097;27109;-82
2021/08/05 00:24:39;;;;;;;8.47;5.70;;;;;;;17.46;85.13;96270.54;127465;1096;23021;-84
2021/08/05 00:27:10;;;;;;;8.23;6.10;;;;;;;17.47;85.24;96269.42;127401;1096;24639;-82
2021/08/05 00:29:42;;;;;;;8.38;6.05;;;;;;;17.46;85.25;96265.18;127406;1097;45563;-84
2021/08/05 00:32:13;;;;;;;8.57;5.27;;;;;;;17.45;85.23;96254.77;127408;1096;23406;-84
2021/08/05 00:34:44;;;;;;;9.50;5.45;;;;;;;17.45;85.37;96258.25;127440;1096;26585;-83
2021/08/05 00:37:16;;;;;;;9.13;5.70;;;;;;;17.46;85.41;96259.04;127414;1096;25202;-83
2021/08/05 00:39:47;;;;;;;6.75;5.28;;;;;;;17.45;85.36;96254.77;127398;1096;24293;-84
2021/08/05 00:42:18;;;;;;;8.78;5.45;;;;;;;17.41;85.43;96241.25;127384;1097;45431;-83
2021/08/05 00:44:49;;;;;;;9.43;5.78;;;;;;;17.42;85.55;96239.35;127463;1096;25916;-83
2021/08/05 00:47:21;;;;;;;8.18;5.15;;;;;;;17.44;85.64;96237.13;127401;1097;28780;-84
2021/08/05 00:49:52;;;;;;;8.28;5.10;;;;;;;17.39;85.48;96226.63;127420;1096;24152;-85
2021/08/05 00:52:23;;;;;;;6.88;4.88;;;;;;;17.37;85.61;96224.28;127399;1096;31823;-83
2021/08/05 00:54:55;;;;;;;5.93;4.80;;;;;;;17.35;85.52;96226.51;127472;1096;26089;-84
2021/08/05 00:57:26;;;;;;;7.18;5.25;;;;;;;17.34;85.54;96224.16;127454;1096;28368;-84
2021/08/05 00:59:57;;;;;;;8.88;4.75;;;;;;;17.35;85.80;96220.37;127439;1097;25468;-83
2021/08/05 01:02:37;;;;;;;6.68;5.13;;;;;;;17.35;85.72;96221.15;127442;1097;25867;-83
2021/08/05 01:05:10;;;;;;;5.65;4.78;;;;;;;17.34;85.63;96208.87;127468;1096;22832;-82
2021/08/05 01:07:49;;;;;;;7.45;5.20;;;;;;;17.36;85.69;96197.81;127348;1097;82291;-83
2021/08/05 01:10:26;;;;;;;7.45;5.30;;;;;;;17.38;85.76;96196.36;127423;1096;23297;-83
2021/08/05 01:13:07;;;;;;;5.98;4.40;;;;;;;17.31;85.63;96198.01;127427;1095;23099;-83
2021/08/05 01:15:38;;;;;;;7.15;5.15;;;;;;;17.24;85.54;96197.78;127410;1097;43530;-83
2021/08/05 01:18:14;;;;;;;5.83;5.10;;;;;;;17.19;85.75;96194.20;127395;1096;22838;-83
2021/08/05 01:20:47;;;;;;;9.95;5.43;;;;;;;17.10;85.77;96182.78;127417;1097;28831;-82
2021/08/05 01:23:30;;;;;;;6.93;5.35;;;;;;;17.09;86.18;96186.57;127415;1096;26356;-83
2021/08/05 01:26:09;;;;;;;6.98;5.05;;;;;;;17.15;86.45;96185.23;127517;1095;24531;-83
2021/08/05 01:28:43;;;;;;;6.08;4.65;;;;;;;17.19;86.52;96182.70;127430;1097;23659;-82
2021/08/05 01:31:16;;;;;;;5.65;4.25;;;;;;;17.19;86.42;96188.84;127439;1096;22817;-83
2021/08/05 01:33:50;;;;;;;7.75;5.05;;;;;;;17.23;86.22;96191.64;127422;1096;23570;-83
2021/08/05 01:36:24;;;;;;;9.23;5.63;;;;;;;17.23;86.53;96185.50;127478;1096;22784;-83
2021/08/05 01:38:57;;;;;;;8.78;5.50;;;;;;;17.13;86.28;96189.37;127431;1097;26705;-84
2021/08/05 01:41:30;;;;;;;7.45;5.93;;;;;;;17.05;86.72;96182.22;127409;1095;28666;-83
2021/08/05 01:44:02;;;;;;;7.83;5.90;;;;;;;17.09;87.15;96185.79;127456;1096;28404;-83
2021/08/05 01:46:43;;;;;;;9.50;5.53;;;;;;;17.13;87.37;96186.69;127474;1097;28633;-83
2021/08/05 01:49:16;;;;;;;9.08;6.18;;;;;;;17.08;87.38;96184.23;127424;1096;28900;-83
2021/08/05 01:51:49;;;;;;;7.25;5.90;;;;;;;17.11;87.62;96184.34;127414;1095;51651;-82
2021/08/05 01:54:20;;;;;;;7.68;4.80;;;;;;;17.13;87.47;96175.97;127472;1097;25237;-83
2021/08/05 01:56:52;;;;;;;10.48;6.00;;;;;;;17.00;87.23;96171.69;127461;1096;27429;-82
2021/08/05 01:59:23;;;;;;;9.03;6.25;;;;;;;16.95;87.79;96169.23;127439;1096;28775;-83
2021/08/05 02:01:55;;;;;;;8.15;5.68;;;;;;;16.94;87.94;96160.41;127419;1097;24120;-83
2021/08/05 02:04:36;;;;;;;7.48;5.03;;;;;;;16.99;88.12;96176.27;127467;1096;24058;-84
2021/08/05 02:07:13;;;;;;;6.03;5.23;;;;;;;17.03;87.98;96182.55;127396;1097;53835;-82
2021/08/05 02:09:54;;;;;;;7.20;4.93;;;;;;;17.06;87.82;96176.52;127439;1096;25956;-84
2021/08/05 02:12:29;;;;;;;7.23;5.25;;;;;;;17.00;87.41;96169.02;127459;1096;25942;-84
2021/08/05 02:15:02;;;;;;;7.88;6.00;;;;;;;16.91;87.56;96169.11;127525;1097;29718;-83
2021/08/05 02:17:37;;;;;;;7.38;6.00;;;;;;;16.85;87.91;96163.16;127513;1096;23473;-83
2021/08/05 02:20:13;;;;;;;6.70;5.45;;;;;;;16.85;88.28;96165.83;127391;1095;26312;-83
2021/08/05 02:22:48;;;;;;;9.93;6.78;;;;;;;16.82;88.08;96168.39;127434;1097;22790;-83
2021/08/05 02:25:21;;;;;;;7.08;5.93;;;;;;;16.79;88.34;96153.77;127504;1096;28277;-84
2021/08/05 02:27:53;;;;;;;8.43;6.53;;;;;;;16.82;88.56;96160.36;127424;1095;25830;-84
2021/08/05 02:30:24;;;;;;;6.65;5.68;;;;;;;16.87;88.77;96152.89;127403;1096;60497;-84
2021/08/05 02:32:56;;;;;;;8.15;5.85;;;;;;;16.92;88.87;96154.61;127443;1097;23305;-84
2021/08/05 02:35:30;;;;;;;8.18;5.48;;;;;;;16.94;88.74;96156.95;127416;1096;25097;-83
2021/08/05 02:38:02;;;;;;;7.18;4.80;;;;;;;16.91;88.44;96150.37;127419;1096;24350;-82
2021/08/05 02:40:35;;;;;;;8.18;5.05;;;;;;;16.89;88.32;96149.89;127349;1096;89288;-83
2021/08/05 02:43:09;;;;;;;6.45;4.05;;;;;;;16.87;88.16;96157.47;127495;1096;24435;-84
2021/08/05 02:45:42;;;;;;;8.48;6.40;;;;;;;16.80;88.25;96147.31;127411;1096;25911;-84
2021/08/05 02:48:14;;;;;;;9.40;6.93;;;;;;;16.68;88.65;96155.28;127459;1097;26327;-83
2021/08/05 02:50:46;;;;;;;9.95;7.05;;;;;;;16.69;89.08;96156.84;127419;1096;25903;-83
2021/08/05 02:53:18;;;;;;;8.50;7.13;;;;;;;16.67;88.93;96148.37;127436;1097;33355;-84
2021/08/05 02:55:51;;;;;;;10.35;7.18;;;;;;;16.62;89.14;96152.01;127439;1097;28104;-83
2021/08/05 02:58:23;;;;;;;9.08;7.70;;;;;;;16.60;89.49;96148.06;127447;1096;27455;-84
2021/08/05 03:00:54;;;;;;;8.73;7.50;;;;;;;16.63;89.78;96148.22;127429;1096;27696;-83
2021/08/05 03:03:26;;;;;;;8.93;7.50;;;;;;;16.72;90.01;96144.70;127454;1097;26308;-83
2021/08/05 03:05:58;;;;;;;8.38;6.95;;;;;;;16.79;90.02;96153.00;127450;1096;27048;-84
2021/08/05 03:08:29;;;;;;;7.97;6.87;;;;;;;16.83;90.16;96148.54;127438;1095;23052;-84
2021/08/05 03:11:01;;;;;;;10.35;7.23;;;;;;;16.79;90.08;96145.74;127405;1097;26423;-83
2021/08/05 03:13:32;;;;;;;9.28;7.10;;;;;;;16.72;90.32;96150.83;127508;1096;23702;-84
2021/08/05 03:16:03;;;;;;;9.18;7.78;;;;;;;16.69;90.31;96148.04;127516;1096;22816;-84
2021/08/05 03:18:34;;;;;;;8.88;6.85;;;;;;;16.72;90.24;96150.05;127474;1097;27214;-83
2021/08/05 03:21:06;;;;;;;10.15;6.60;;;;;;;16.78;90.36;96151.44;127512;1097;22815;-84
2021/08/05 03:23:37;;;;;;;7.40;6.00;;;;;;;16.78;90.02;96130.80;127421;1096;25382;-83
2021/08/05 03:26:09;;;;;;;6.90;5.33;;;;;;;16.72;90.10;96125.96;127442;1096;23607;-83
2021/08/05 03:28:40;;;;;;;6.55;5.33;;;;;;;16.67;89.99;96129.63;127412;1097;65232;-83
2021/08/05 03:31:11;;;;;;;7.40;5.68;;;;;;;16.68;90.19;96130.41;127433;1096;24467;-84
2021/08/05 03:33:43;;;;;;;9.23;5.40;;;;;;;16.67;90.00;96126.14;127371;1097;63240;-84
2021/08/05 03:36:14;;;;;;;8.03;6.38;;;;;;;16.63;90.11;96121.45;127437;1096;38952;-85
2021/08/05 03:38:45;;;;;;;8.28;6.58;;;;;;;16.63;90.41;96120.67;127424;1097;27567;-83
2021/08/05 03:41:16;;;;;;;9.80;7.10;;;;;;;16.59;90.49;96115.17;127366;1096;31493;-84
2021/08/05 03:43:48;;;;;;;9.10;6.80;;;;;;;16.59;90.68;96120.52;127423;1095;27037;-84
2021/08/05 03:46:19;;;;;;;7.78;6.60;;;;;;;16.67;90.92;96120.80;127449;1097;23639;-84
2021/08/05 03:48:50;;;;;;;8.60;6.40;;;;;;;16.72;90.99;96113.36;127462;1097;24490;-84
2021/08/05 03:51:22;;;;;;;8.05;6.58;;;;;;;16.76;90.96;96108.16;127445;1097;24384;-82
2021/08/05 03:53:54;;;;;;;9.28;7.00;;;;;;;16.82;90.95;96109.50;127423;1096;23886;-84
2021/08/05 03:56:25;;;;;;;8.55;6.58;;;;;;;16.86;90.98;96107.72;127407;1097;28605;-85
2021/08/05 03:58:56;;;;;;;9.53;6.97;;;;;;;16.84;90.68;96110.72;127441;1096;23109;-84
2021/08/05 04:01:28;;;;;;;7.85;6.65;;;;;;;16.81;90.57;96121.32;127452;1095;23252;-83
2021/08/05 04:03:59;;;;;;;7.47;6.17;;;;;;;16.80;90.56;96125.11;127429;1096;26847;-84
2021/08/05 04:06:30;;;;;;;8.38;6.35;;;;;;;16.75;90.82;96119.94;127421;1096;31417;-85
2021/08/05 04:09:02;;;;;;;9.33;6.30;;;;;;;16.71;90.97;96106.44;127388;1097;38142;-84
2021/08/05 04:11:33;;;;;;;8.28;6.10;;;;;;;16.70;90.93;96085.36;127488;1096;22809;-83
2021/08/05 04:14:04;;;;;;;8.68;6.70;;;;;;;16.74;91.31;96083.58;127526;1097;28663;-83
2021/08/05 04:16:37;;;;;;;8.30;6.45;;;;;;;16.81;91.27;96089.97;127449;1096;22823;-83
2021/08/05 04:19:08;;;;;;;8.75;6.63;;;;;;;16.85;91.22;96093.55;127431;1096;23920;-82
2021/08/05 04:21:39;;;;;;;8.18;6.90;;;;;;;16.89;91.25;96088.30;127420;1096;32787;-83
2021/08/05 04:24:10;;;;;;;8.70;7.10;;;;;;;16.92;91.03;96087.67;127451;1096;30090;-83
2021/08/05 04:26:42;;;;;;;8.48;6.63;;;;;;;16.90;90.92;96095.25;127425;1097;28025;-83
2021/08/05 04:29:13;;;;;;;7.25;5.88;;;;;;;16.94;90.98;96098.83;127440;1096;22947;-84
2021/08/05 04:31:44;;;;;;;10.33;5.80;;;;;;;16.96;91.04;96079.75;127476;1094;30797;-84
2021/08/05 04:34:16;;;;;;;6.90;5.98;;;;;;;16.98;91.00;96091.69;127436;1096;22820;-83
2021/08/05 04:36:47;;;;;;;7.18;5.73;;;;;;;17.00;90.95;96078.74;127433;1096;27478;-83
2021/08/05 04:39:19;;;;;;;10.78;6.80;;;;;;;17.01;90.97;96087.56;127424;1095;29204;-83
2021/08/05 04:41:51;;;;;;;8.13;6.40;;;;;;;16.98;90.92;96091.69;127412;1095;26861;-85
2021/08/05 04:44:22;;;;;;;9.00;6.63;;;;;;;16.93;90.90;96083.09;127421;1096;25109;-84
2021/08/05 04:46:54;;;;;;;7.63;6.68;;;;;;;16.85;90.95;96082.06;127447;1097;24842;-83
2021/08/05 04:49:25;;;;;;;8.10;6.98;;;;;;;16.80;91.22;96079.60;127431;1096;26330;-85
2021/08/05 04:51:56;;;;;;;7.95;6.85;;;;;;;16.79;91.35;96084.17;127473;1097;26303;-83
2021/08/05 04:54:28;;;;;;;9.60;6.90;;;;;;;16.78;91.57;96085.29;127406;1096;37085;-84
2021/08/05 04:56:59;;;;;;;8.93;7.45;;;;;;;16.78;91.72;96071.13;127465;1096;24030;-84
2021/08/05 04:59:30;;;;;;;9.78;6.78;;;;;;;16.84;91.73;96065.22;127469;1096;24708;-84
2021/08/05 05:02:01;;;;;;;9.05;7.48;;;;;;;16.87;91.86;96066.44;127396;1097;43793;-84
2021/08/05 05:04:33;;;;;;;9.68;6.80;;;;;;;16.82;91.53;96058.63;127453;1096;23970;-85
2021/08/05 05:07:04;;;;;;;9.20;6.65;;;;;;;16.74;91.53;96048.78;127511;1096;27189;-84
2021/08/05 05:09:35;;;;;;;7.35;6.50;;;;;;;16.76;91.99;96054.61;127497;1095;26821;-84
2021/08/05 05:12:08;;;;;;;12.03;7.87;;;;;;;16.83;92.37;96054.84;127439;1096;26652;-82
2021/08/05 05:14:40;;;;;;;8.43;6.90;;;;;;;16.80;91.89;96055.51;127469;1097;25238;-83
2021/08/05 05:17:11;;;;;;;8.58;7.30;;;;;;;16.76;92.08;96055.39;127392;1096;22998;-83
2021/08/05 05:19:42;;;;;;;10.53;7.20;;;;;;;16.73;92.00;96044.55;127449;1097;23240;-83
2021/08/05 05:22:14;;;;;;;11.00;8.13;;;;;;;16.64;91.99;96047.30;127434;1095;22832;-83
2021/08/05 05:24:45;;;;;;;9.35;7.48;;;;;;;16.59;92.30;96045.59;127484;1097;23296;-84
2021/08/05 05:27:16;;;;;;;9.70;7.67;;;;;;;16.65;92.96;96040.83;127393;1096;31832;-84
2021/08/05 05:29:48;;;;;;;10.13;7.58;;;;;;;16.72;92.92;96042.98;127458;1097;31081;-85
2021/08/05 05:32:19;;;;;;;12.80;7.50;;;;;;;16.70;92.74;96039.86;127365;1096;28284;-84
2021/08/05 05:34:50;;;;;;;10.23;7.98;;;;;;;16.66;92.93;96050.42;127488;1096;24450;-84
2021/08/05 05:37:22;;;;;;;11.63;8.78;;;;;;;16.62;92.75;96049.53;127422;1096;27332;-84
2021/08/05 05:39:56;;;;;;;9.70;8.53;;;;;;;16.63;93.41;96045.73;127416;1096;25528;-84
2021/08/05 05:42:30;;;;;;;12.08;9.43;;;;;;;16.75;94.14;96034.28;127441;1096;31106;-83
2021/08/05 05:45:01;;;;;;;12.43;9.83;;;;;;;16.86;94.11;96036.21;127439;1096;27379;-83
2021/08/05 05:47:33;;;;;;;11.50;10.30;;;;;;;16.95;94.15;96033.45;127489;1095;22952;-84
2021/08/05 05:50:06;;;;;;;12.33;10.67;;;;;;;17.00;94.24;96035.11;127492;1097;25341;-84
2021/08/05 05:52:38;;;;;;;13.15;11.15;;;;;;;17.04;94.06;96034.14;127439;1096;23042;-83
2021/08/05 05:55:11;;;;;;;13.47;12.07;;;;;;;17.12;94.20;96038.59;127375;1096;30366;-82
2021/08/05 05:57:43;;;;;;;11.90;10.63;;;;;;;17.17;94.00;96033.03;127425;1096;27436;-83
2021/08/05 06:00:16;;;;;;;14.57;11.57;;;;;;;17.22;94.04;96023.98;127436;1097;27552;-83
2021/08/05 06:02:47;;;;;;;14.35;12.25;;;;;;;17.28;93.87;96027.21;127408;1096;27547;-83
2021/08/05 06:05:19;;;;;;;13.93;11.83;;;;;;;17.36;94.02;96023.66;127450;1096;25351;-84
2021/08/05 06:07:52;;;;;;;13.33;11.90;;;;;;;17.42;94.38;96016.94;127358;1097;28697;-85
2021/08/05 06:10:25;;;;;;;13.40;11.78;;;;;;;17.47;93.93;96022.09;127445;1096;23957;-85
2021/08/05 06:12:56;;;;;;;13.00;11.30;;;;;;;17.52;93.93;96005.77;127426;1097;25893;-85
2021/08/05 06:15:28;;;;;;;13.43;10.57;;;;;;;17.54;93.69;95998.17;127482;1096;28596;-84
2021/08/05 06:17:59;;;;;;;12.48;10.73;;;;;;;17.60;93.78;95996.83;127457;1096;24956;-84
2021/08/05 06:20:30;;;;;;;12.55;10.88;;;;;;;17.73;93.97;95994.91;127443;1097;23875;-84
2021/08/05 06:23:03;;;;;;;12.03;10.15;;;;;;;17.76;93.48;95989.67;127421;1097;42978;-84
2021/08/05 06:25:34;;;;;;;11.70;9.48;;;;;;;17.77;93.47;95982.41;127494;1097;26931;-85
2021/08/05 06:28:06;;;;;;;12.00;9.68;;;;;;;17.75;93.26;95982.76;127470;1096;25981;-84
2021/08/05 06:30:39;;;;;;;13.10;10.70;;;;;;;17.72;92.95;95982.63;127430;1096;22829;-82
2021/08/05 06:33:11;;;;;;;11.95;9.53;;;;;;;17.65;92.85;95983.19;127419;1096;24076;-84
2021/08/05 06:35:42;;;;;;;11.50;9.95;;;;;;;17.58;93.19;95982.97;127489;1096;23258;-83
2021/08/05 06:38:13;;;;;;;10.93;8.87;;;;;;;17.54;92.75;95987.45;127426;1097;27043;-85
2021/08/05 06:40:45;;;;;;;11.58;9.90;;;;;;;17.38;92.68;95973.19;127404;1096;28975;-83
2021/08/05 06:43:16;;;;;;;11.13;9.35;;;;;;;17.28;92.82;95985.13;127425;1097;35077;-85
2021/08/05 06:45:48;;;;;;;13.73;11.55;;;;;;;17.19;93.11;95981.80;127425;1096;28384;-83
2021/08/05 06:48:19;;;;;;;13.40;11.03;;;;;;;17.12;93.38;95976.98;127480;1096;23104;-83
2021/08/05 06:50:50;;;;;;;11.97;10.00;;;;;;;17.13;93.67;95975.88;127441;1097;23544;-84
2021/08/05 06:53:22;;;;;;;12.65;10.73;;;;;;;17.12;94.08;95981.56;127439;1095;28938;-83
2021/08/05 06:55:53;;;;;;;12.83;11.30;;;;;;;17.09;94.20;95983.02;127423;1096;25538;-84
2021/08/05 06:58:25;;;;;;;13.08;11.05;;;;;;;17.06;94.47;95986.38;127470;1095;24359;-83
2021/08/05 07:00:56;;;;;;;14.85;12.00;;;;;;;17.11;94.85;95985.36;127419;1097;24367;-84
2021/08/05 07:03:28;;;;;;;13.30;11.78;;;;;;;17.16;94.98;95987.80;127440;1096;23798;-84
2021/08/05 07:05:59;;;;;;;13.93;12.00;;;;;;;17.21;95.14;95982.24;127429;1097;29424;-85
2021/08/05 07:08:31;;;;;;;12.78;10.90;;;;;;;17.27;95.01;95977.43;127382;1096;25741;-83
2021/08/05 07:11:03;;;;;;;12.78;11.15;;;;;;;17.26;94.98;95971.30;127486;1095;27615;-84
2021/08/05 07:13:34;;;;;;;14.25;11.50;;;;;;;17.25;95.00;95979.67;127547;1097;24725;-83
2021/08/05 07:16:06;;;;;;;13.40;11.28;;;;;;;17.25;94.90;95974.31;127480;1097;27259;-83
2021/08/05 07:18:37;;;;;;;12.53;10.97;;;;;;;17.27;95.21;95956.00;127505;1097;25591;-84
2021/08/05 07:21:09;;;;;;;12.00;10.27;;;;;;;17.33;95.30;95960.03;127378;1097;25406;-83
2021/08/05 07:23:40;;;;;;;14.93;12.10;;;;;;;17.41;95.51;95956.42;127479;1097;23252;-83
2021/08/05 07:26:11;;;;;;;13.38;11.18;;;;;;;17.48;95.41;95968.15;127445;1097;24670;-84
2021/08/05 07:28:42;;;;;;;14.10;12.08;;;;;;;17.51;95.33;95961.33;127417;1096;25842;-84
2021/08/05 07:31:14;;;;;;;15.65;12.33;;;;;;;17.55;95.43;95959.52;127470;1095;25048;-85
2021/08/05 07:33:48;;;;;;;13.45;11.88;;;;;;;17.58;95.46;95961.52;127451;1096;28721;-84
2021/08/05 07:36:20;;;;;;;14.10;11.18;;;;;;;17.59;95.26;95968.44;127408;1097;35693;-84
2021/08/05 07:38:52;;;;;;;13.23;11.28;;;;;;;17.59;95.29;95968.44;127424;1097;22983;-84
2021/08/05 07:41:23;;;;;;;14.90;11.83;;;;;;;17.53;94.81;95963.67;127418;1095;28858;-84
2021/08/05 07:43:55;;;;;;;12.13;10.90;;;;;;;17.50;95.14;95970.49;127416;1095;68212;-84
2021/08/05 07:46:26;;;;;;;13.28;11.38;;;;;;;17.48;95.14;95964.69;127415;1095;24646;-84
2021/08/05 07:49:06;;;;;;;16.50;12.18;;;;;;;17.42;95.17;95968.70;127421;1096;28237;-83
2021/08/05 07:51:38;;;;;;;13.35;11.93;;;;;;;17.50;95.65;95971.27;127413;1096;23096;-81
2021/08/05 07:54:10;;;;;;;13.00;10.93;;;;;;;17.56;95.81;95961.09;127437;1097;25724;-83
2021/08/05 07:56:41;;;;;;;13.48;11.80;;;;;;;17.63;95.79;95953.27;127454;1097;22845;-83
2021/08/05 07:59:12;;;;;;;13.70;10.50;;;;;;;17.58;95.43;95963.42;127387;1097;30051;-84
2021/08/05 08:01:44;;;;;;;14.10;11.90;;;;;;;17.54;95.30;95963.33;127409;1096;25688;-85
2021/08/05 08:04:15;;;;;;;13.83;12.15;;;;;;;17.47;95.20;95965.81;127412;1096;77766;-84
2021/08/05 08:06:47;;;;;;;15.33;12.63;;;;;;;17.45;95.74;95973.38;127429;1095;26861;-85
2021/08/05 08:09:19;;;;;;;14.80;12.30;;;;;;;17.48;95.85;95978.09;127394;1097;37799;-85
2021/08/05 08:11:51;;;;;;;14.40;12.40;;;;;;;17.44;95.71;95977.96;127416;1096;29026;-83
2021/08/05 08:14:22;;;;;;;13.38;11.45;;;;;;;17.43;95.91;95973.72;127475;1096;26586;-84
2021/08/05 08:16:54;;;;;;;14.80;12.80;;;;;;;17.50;96.29;95978.53;127449;1097;23729;-84
2021/08/05 08:19:26;;;;;;;16.13;13.28;;;;;;;17.58;96.46;95977.60;127401;1096;33839;-84
2021/08/05 08:21:58;;;;;;;14.48;12.28;;;;;;;17.65;96.42;95977.05;127410;1097;22621;-84
2021/08/05 08:24:30;;;;;;;15.25;12.90;;;;;;;17.72;96.57;95972.69;127472;1097;23044;-84
2021/08/05 08:27:02;;;;;;;13.73;11.70;;;;;;;17.75;96.46;95968.57;127427;1096;22841;-84
2021/08/05 08:29:33;;;;;;;15.10;12.63;;;;;;;17.78;96.33;95970.56;127429;1097;28025;-84
2021/08/05 08:32:06;;;;;;;14.50;12.50;;;;;;;17.81;96.38;95980.61;127483;1097;30746;-83
2021/08/05 08:34:37;;;;;;;18.33;14.33;;;;;;;17.83;96.24;95969.54;127512;1096;27581;-84
2021/08/05 08:37:09;;;;;;;19.83;16.18;;;;;;;17.83;96.20;95962.27;127403;1096;23721;-83
2021/08/05 08:39:40;;;;;;;19.38;15.35;;;;;;;17.84;96.03;95963.83;127392;1097;32946;-83
2021/08/05 08:42:14;;;;;;;20.85;16.63;;;;;;;17.86;95.95;95952.77;127419;1096;26417;-85
2021/08/05 08:44:46;;;;;;;20.65;17.10;;;;;;;17.87;96.01;95952.42;127456;1097;70795;-84
2021/08/05 08:47:18;;;;;;;18.25;15.28;;;;;;;17.91;95.87;95941.81;127404;1097;24574;-84
2021/08/05 08:49:51;;;;;;;19.70;15.40;;;;;;;17.93;95.88;95928.84;127425;1097;27748;-84
2021/08/05 08:52:26;;;;;;;20.52;14.80;;;;;;;17.96;95.87;95936.20;127420;1096;26761;-85
2021/08/05 08:54:59;;;;;;;19.73;14.83;;;;;;;17.99;95.79;95932.83;127472;1097;24092;-84
2021/08/05 08:57:33;;;;;;;20.03;14.67;;;;;;;18.00;95.42;95931.70;127430;1097;45766;-84
2021/08/05 09:00:07;;;;;;;17.10;13.98;;;;;;;17.93;95.19;95921.58;127514;1097;23229;-86
2021/08/05 09:02:39;;;;;;;18.48;14.20;;;;;;;17.89;95.38;95915.34;127436;1097;35198;-83
2021/08/05 09:05:12;;;;;;;17.03;13.25;;;;;;;17.86;95.05;95912.55;127430;1096;26001;-83
2021/08/05 09:07:45;;;;;;;16.85;12.18;;;;;;;17.81;95.10;95905.53;127456;1097;25258;-83
2021/08/05 09:10:16;;;;;;;17.43;13.23;;;;;;;17.77;95.00;95913.48;127427;1095;25943;-84
2021/08/05 09:12:52;;;;;;;16.95;12.95;;;;;;;17.71;94.86;95924.77;127420;1096;24453;-84
2021/08/05 09:15:38;;;;;;;17.28;12.88;;;;;;;17.64;94.79;95933.38;127440;1096;24896;-84
2021/08/05 09:18:32;;;;;;;14.90;12.00;;;;;;;17.60;94.99;95935.19;127471;1097;24029;-83
2021/08/05 09:21:25;;;;;;;17.75;12.23;;;;;;;17.58;95.16;95936.63;127493;1096;23414;-84
2021/08/05 09:24:01;;;;;;;16.38;11.08;;;;;;;17.56;95.19;95936.19;127440;1096;24626;-84
2021/08/05 09:26:37;;;;;;;18.63;12.53;;;;;;;17.49;95.07;95934.09;127468;1097;31166;-84
2021/08/05 09:29:15;;;;;;;15.50;12.43;;;;;;;17.45;95.07;95934.00;127468;1095;26463;-83
2021/08/05 09:31:58;;;;;;;15.80;12.53;;;;;;;17.46;95.27;95918.70;127444;1097;29301;-84
2021/08/05 09:34:39;;;;;;;14.93;11.85;;;;;;;17.45;95.33;95909.06;127452;1096;25631;-85
2021/08/05 09:37:14;;;;;;;18.58;12.55;;;;;;;17.48;95.55;95916.45;127473;1097;26308;-84
2021/08/05 09:39:46;;;;;;;17.40;13.40;;;;;;;17.48;95.44;95908.41;127389;1096;28576;-84
2021/08/05 09:42:18;;;;;;;16.45;12.80;;;;;;;17.49;95.43;95909.97;127400;1096;23639;-84
2021/08/05 09:44:52;;;;;;;18.30;12.60;;;;;;;17.53;95.85;95904.70;127543;1096;25774;-85
2021/08/05 09:47:27;;;;;;;19.95;13.08;;;;;;;17.54;95.64;95909.73;127427;1097;31706;-84
2021/08/05 09:50:01;;;;;;;16.38;13.38;;;;;;;17.56;95.50;95896.76;127379;1097;28639;-84
2021/08/05 09:52:34;;;;;;;18.73;14.33;;;;;;;17.60;95.87;95894.98;127419;1096;27442;-84
2021/08/05 09:55:08;;;;;;;20.48;14.78;;;;;;;17.66;95.67;95893.61;127523;1097;22808;-84
2021/08/05 09:57:41;;;;;;;20.70;14.55;;;;;;;17.64;95.09;95895.85;127417;1096;27258;-83
2021/08/05 10:00:18;;;;;;;20.03;14.48;;;;;;;17.65;95.57;95886.69;127398;1097;79593;-84
2021/08/05 10:02:51;;;;;;;23.60;15.80;;;;;;;17.67;95.59;95878.30;127389;1096;30605;-84
2021/08/05 10:05:25;;;;;;;27.40;15.40;;;;;;;17.70;95.59;95878.42;127497;1097;22982;-84
2021/08/05 10:07:59;;;;;;;26.95;16.08;;;;;;;17.70;95.57;95872.28;127446;1095;24311;-84
2021/08/05 10:10:48;;;;;;;22.90;17.08;;;;;;;17.76;95.71;95860.98;127425;1097;23683;-84
2021/08/05 10:13:34;;;;;;;26.33;18.15;;;;;;;17.82;95.54;95858.83;127495;1097;24874;-84
2021/08/05 10:16:07;;;;;;;24.05;17.40;;;;;;;17.92;95.80;95852.98;127512;1096;22815;-84
2021/08/05 10:18:40;;;;;;;25.83;17.85;;;;;;;17.99;95.76;95863.09;127474;1095;27056;-83
2021/08/05 10:21:13;;;;;;;24.18;16.90;;;;;;;17.98;95.56;95856.95;127422;1097;26783;-85
2021/08/05 10:23:46;;;;;;;28.73;18.73;;;;;;;17.88;94.83;95856.70;127452;1097;30565;-84
2021/08/05 10:26:18;;;;;;;24.20;18.55;;;;;;;17.68;94.83;95853.05;127424;1096;27054;-84
2021/08/05 10:28:49;;;;;;;25.75;20.10;;;;;;;17.66;95.02;95849.94;127439;1097;30766;-84
2021/08/05 10:31:22;;;;;;;25.83;19.25;;;;;;;17.61;95.18;95837.57;127416;1097;28138;-83
2021/08/05 10:33:55;;;;;;;24.70;19.35;;;;;;;17.57;95.27;95839.35;127489;1096;25474;-85
2021/08/05 10:36:26;;;;;;;30.10;20.35;;;;;;;17.50;95.19;95831.91;127441;1097;25627;-84
2021/08/05 10:38:58;;;;;;;27.35;20.65;;;;;;;17.47;95.54;95831.82;127421;1097;23869;-83
2021/08/05 10:41:32;;;;;;;25.55;19.33;;;;;;;17.48;95.67;95822.66;127448;1096;25197;-84
2021/08/05 10:44:03;;;;;;;27.43;19.95;;;;;;;17.47;95.77;95826.46;127551;1096;24749;-83
2021/08/05 10:46:36;;;;;;;34.18;21.25;;;;;;;17.45;95.76;95820.64;127480;1097;28725;-84
2021/08/05 10:49:08;;;;;;;28.58;19.98;;;;;;;17.41;95.67;95811.73;127470;1097;28765;-83
2021/08/05 10:51:41;;;;;;;29.10;20.47;;;;;;;17.37;95.71;95817.00;127433;1097;33635;-82
2021/08/05 10:54:12;;;;;;;33.05;21.50;;;;;;;17.33;95.77;95810.77;127436;1097;25955;-83
2021/08/05 10:56:46;;;;;;;30.78;21.00;;;;;;;17.26;95.50;95801.74;127466;1097;25887;-83
2021/08/05 10:59:18;;;;;;;32.03;23.35;;;;;;;17.18;95.99;95803.45;127472;1097;27555;-83
2021/08/05 11:01:58;;;;;;;28.13;21.83;;;;;;;17.17;96.25;95777.77;127412;1097;32247;-83
2021/08/05 11:04:50;;;;;;;31.88;22.68;;;;;;;17.15;96.26;95785.37;127450;1096;26508;-85
2021/08/05 11:07:33;;;;;;;29.55;22.15;;;;;;;17.09;96.35;95784.84;127449;1096;22815;-83
2021/08/05 11:10:26;;;;;;;30.60;22.70;;;;;;;17.12;96.68;95788.73;127496;1097;26274;-83
2021/08/05 11:12:59;;;;;;;39.05;21.75;;;;;;;17.10;96.39;95791.75;127463;1095;25151;-84
2021/08/05 11:15:52;;;;;;;33.20;21.58;;;;;;;17.00;96.30;95784.19;127454;1095;26428;-84
2021/08/05 11:18:27;;;;;;;30.83;22.78;;;;;;;16.95;96.86;95781.75;127465;1097;24233;-83
2021/08/05 11:21:36;;;;;;;31.63;22.10;;;;;;;16.96;97.19;95777.95;127402;1095;29966;-84
2021/08/05 11:24:08;;;;;;;31.85;22.85;;;;;;;16.93;97.09;95770.61;127508;1096;26349;-84
2021/08/05 11:27:12;;;;;;;30.93;21.63;;;;;;;16.99;97.79;95760.42;127445;1097;27366;-82
2021/08/05 11:29:44;;;;;;;30.40;23.05;;;;;;;16.99;97.41;95758.53;127442;1096;25897;-84
2021/08/05 11:32:41;;;;;;;37.43;20.00;;;;;;;16.99;97.54;95744.36;127417;1097;37682;-85
2021/08/05 11:35:22;;;;;;;25.98;18.18;;;;;;;16.96;97.45;95740.47;127454;1095;22937;-83
2021/08/05 11:38:05;;;;;;;;;;;;;;;16.94;97.83;95742.71;127435;1097;37892;-84
2021/08/05 11:40:45;;;;;;;29.90;20.37;;;;;;;16.95;97.99;95730.11;127512;1096;24190;-85
2021/08/05 11:43:25;;;;;;;29.88;20.95;;;;;;;16.95;98.06;95725.53;127412;1096;22824;-84
2021/08/05 11:46:22;;;;;;;29.95;20.55;;;;;;;16.94;98.00;95726.65;127359;1096;82302;-84